Airfield :
LOGIN :

Register | Disclaimer

   EN    FR    IT 

 










Legend :    VFR   Marginal VFR   IFR   Intensive IFR   Very Intensive IFR
Visi :
Ceiling :
>= 8 km
>= 3000ft
5 to 8 km
1000 to 3000 ft
1500m to 5 km
500 to 1000 ft
800 to 1500m
200 to 500 ft
< 800m
< 200 ft
Symbols :   Thunderstorms  Fog  Heavy snow  Heavy precipitations  Wind > 20 kt
SIGMETs :     Misc.  Thunderstorms  Icing  Turbulence  Mountain Waves  Volcanic Ashes







- Airport Elevation : 268 ft
- IATA code : BFS
- Download approach charts


EGAA - Belfast Aldergrove

CURRENT METAR :
  • 181750Z 23010KT 9999 SCT007 FEW010CB SCT014 02/02 Q1001

EXPIRED METARs :
  • 181720Z 23010KT 9999 SCT007 FEW010CB SCT014 02/02 Q1001
  • 181650Z 23011KT 9999 SCT007 BKN012 02/02 Q1001
  • 181620Z 25008KT 9999 FEW006 FEW009CB BKN010 02/01 Q1000 RERA RESN
  • 181550Z 26013KT 9000 -RASN SCT006 BKN013 02/01 Q1000
  • 181520Z 25010KT 9999 SCT006 SCT010CB 03/02 Q1000

TAF TAF EGAA
Valid from the 18 at 18:00 until the 19 at 18:00 UTC


181702Z 1818/1918 24012KT 9999 FEW005 BKN025
TEMPO 1818/1918 5000 SHRASN SCT004 BKN012CB
PROB30
TEMPO 1820/1918 1000 SHSN BKN002
TEMPO 1907/1918 25016G26KT
No reported NOTAMs for that airfield.



MET'MAP, your aeronautical weather chart ! - Copyright ORBIFLY December 2007 - Disclaimer

ORBIFLY MET'MAP TEAM :

Programming & Development : Alexandra Zaïnal
Concept & Development : Baudouin d'Aumeries
Co-Development & Prog : Marc-Olivier Méhu
Technical & hardware support : Manuel Goepfert

Contact : metmap@orbifly.com




SOURCES & CREDITS :

   NOAA